Terminal Aerodrome Forecast
Issued by NWS

Home | Current Version | Previous Version | Text Only | Print | Product List | Glossary On
Versions: 1 2 3 4 5 6 7 8 9 10 11 12 13 14 15 16 17 18 19
000
FTUS43 KGRB 012300
TAFCWA
TAF
KCWA 012338Z 0200/0224 01009G15KT P6SM BKN120
     FM020500 35005KT P6SM SCT150
     FM021400 29005KT P6SM SKC
     FM021800 23007KT P6SM SCT200
      AMD LTD TO CLD VIS AND WIND 0203/0211=

USA.gov is the U.S. government's official web portal to all federal, state and local government web resources and services.